Time;durP1;ratioP1;P1;durP2;ratioP2;P2;SDS_P1;SDS_P2;PMS_P1;PMS_P2;Temp;Humidity;BMP_temperature;BMP_pressure;BME280_temperature;BME280_humidity;BME280_pressure;Samples;Min_cycle;Max_cycle;Signal;HPM_P1;HPM_P2
2023/04/29 00:01:44;;;;;;;3.53;2.85;;;;;;;;;;5020151;28;20250;-84
2023/04/29 00:04:12;;;;;;;3.08;2.88;;;;;;;;;;5019898;28;20238;-84
2023/04/29 00:06:41;;;;;;;2.58;2.38;;;;;;;;;;5020121;28;20232;-84
2023/04/29 00:09:08;;;;;;;2.83;2.63;;;;;;;;;;5019127;28;20557;-83
2023/04/29 00:11:35;;;;;;;2.78;2.58;;;;;;;;;;5019391;28;20265;-83
2023/04/29 00:14:03;;;;;;;2.28;1.98;;;;;;;;;;5019430;28;20289;-85
2023/04/29 00:16:32;;;;;;;1.60;1.50;;;;;;;;;;5019623;28;20286;-84
2023/04/29 00:19:00;;;;;;;2.10;1.92;;;;;;;;;;5019688;28;20269;-84
2023/04/29 00:21:27;;;;;;;2.40;2.20;;;;;;;;;;5019523;28;20226;-85
2023/04/29 00:23:55;;;;;;;1.70;1.60;;;;;;;;;;5019550;28;20210;-85
2023/04/29 00:26:22;;;;;;;2.50;2.30;;;;;;;;;;5019889;28;20227;-84
2023/04/29 00:28:50;;;;;;;1.80;1.70;;;;;;;;;;5020768;28;20745;-84
2023/04/29 00:31:17;;;;;;;2.53;1.70;;;;;;;;;;5020043;28;20238;-85
2023/04/29 00:33:46;;;;;;;1.83;1.73;;;;;;;;;;5020104;28;20213;-84
2023/04/29 00:36:13;;;;;;;1.75;1.65;;;;;;;;;;5020561;28;20246;-84
2023/04/29 00:38:41;;;;;;;1.55;1.45;;;;;;;;;;5018910;28;20207;-86
2023/04/29 00:41:08;;;;;;;1.58;1.48;;;;;;;;;;5017729;28;20232;-85
2023/04/29 00:43:36;;;;;;;2.10;2.00;;;;;;;;;;5018840;28;20303;-85
2023/04/29 00:46:03;;;;;;;1.80;1.70;;;;;;;;;;5019832;28;20664;-84
2023/04/29 00:48:31;;;;;;;1.73;1.63;;;;;;;;;;5019803;28;20242;-85
2023/04/29 00:51:00;;;;;;;2.50;2.30;;;;;;;;;;5019597;28;20290;-86
2023/04/29 00:53:28;;;;;;;2.22;2.08;;;;;;;;;;5019413;28;20735;-85
2023/04/29 00:55:56;;;;;;;4.50;4.15;;;;;;;;;;5018506;28;20262;-85
2023/04/29 00:58:31;;;;;;;3.10;2.90;;;;;;;;;;5017646;28;20214;-85
2023/04/29 01:00:59;;;;;;;4.30;3.92;;;;;;;;;;5017766;28;20225;-86
2023/04/29 01:03:26;;;;;;;3.00;2.80;;;;;;;;;;5018190;28;20290;-86
2023/04/29 01:06:02;;;;;;;2.17;2.08;;;;;;;;;;5017982;28;20255;-86
2023/04/29 01:08:38;;;;;;;3.10;2.88;;;;;;;;;;5017691;28;20234;-85
2023/04/29 01:11:10;;;;;;;2.30;2.10;;;;;;;;;;5016881;28;20207;-84
2023/04/29 01:13:45;;;;;;;2.00;1.90;;;;;;;;;;5015916;28;20193;-85
2023/04/29 01:16:21;;;;;;;1.75;1.65;;;;;;;;;;5014649;28;20687;-86
2023/04/29 01:18:53;;;;;;;1.50;1.40;;;;;;;;;;5014565;28;20293;-86
2023/04/29 01:21:22;;;;;;;2.72;2.53;;;;;;;;;;5015186;28;20229;-86
2023/04/29 01:23:54;;;;;;;1.80;1.70;;;;;;;;;;5015588;28;20199;-86
2023/04/29 01:26:22;;;;;;;1.95;1.85;;;;;;;;;;5018821;28;20214;-86
2023/04/29 01:28:55;;;;;;;2.08;1.95;;;;;;;;;;5018793;28;20230;-85
2023/04/29 01:31:28;;;;;;;2.22;2.13;;;;;;;;;;5018959;28;20214;-86
2023/04/29 01:34:05;;;;;;;3.58;3.15;;;;;;;;;;5018204;28;20245;-85
2023/04/29 01:36:40;;;;;;;2.90;2.70;;;;;;;;;;5020233;28;20202;-86
2023/04/29 01:39:15;;;;;;;3.17;2.90;;;;;;;;;;5020107;28;20265;-85
2023/04/29 01:41:45;;;;;;;3.35;3.05;;;;;;;;;;5020784;28;20659;-85
2023/04/29 01:44:16;;;;;;;3.75;3.45;;;;;;;;;;5019208;28;20210;-85
2023/04/29 01:46:46;;;;;;;2.92;2.72;;;;;;;;;;5019335;28;20207;-85
2023/04/29 01:49:13;;;;;;;2.50;2.30;;;;;;;;;;5019671;28;20243;-85
2023/04/29 01:51:41;;;;;;;2.67;2.47;;;;;;;;;;5019230;28;20234;-86
2023/04/29 01:54:10;;;;;;;2.70;2.50;;;;;;;;;;5019013;28;20286;-85
2023/04/29 01:56:37;;;;;;;3.92;3.47;;;;;;;;;;5019871;28;20293;-86
2023/04/29 01:59:05;;;;;;;3.67;3.38;;;;;;;;;;5018800;28;20613;-85
2023/04/29 02:01:32;;;;;;;5.25;4.75;;;;;;;;;;5019092;28;20225;-85
2023/04/29 02:04:00;;;;;;;5.60;4.28;;;;;;;;;;5019102;28;20696;-85
2023/04/29 02:06:27;;;;;;;5.18;4.65;;;;;;;;;;5019150;28;20203;-85
2023/04/29 02:08:55;;;;;;;5.25;4.75;;;;;;;;;;5019398;28;20676;-85
2023/04/29 02:11:24;;;;;;;5.03;4.63;;;;;;;;;;5019667;28;20197;-85
2023/04/29 02:13:51;;;;;;;6.15;5.65;;;;;;;;;;5019532;28;20271;-86
2023/04/29 02:16:19;;;;;;;6.43;5.82;;;;;;;;;;5018922;28;20749;-87
2023/04/29 02:18:46;;;;;;;5.30;4.90;;;;;;;;;;5020193;28;20210;-86
2023/04/29 02:21:14;;;;;;;6.90;6.20;;;;;;;;;;5019593;28;20314;-86
2023/04/29 02:23:42;;;;;;;7.00;6.30;;;;;;;;;;5020402;28;20234;-86
2023/04/29 02:26:09;;;;;;;8.52;7.55;;;;;;;;;;5019882;28;20254;-85
2023/04/29 02:28:38;;;;;;;7.65;6.95;;;;;;;;;;5019742;28;20294;-86
2023/04/29 02:31:06;;;;;;;7.15;6.40;;;;;;;;;;5020514;28;20294;-86
2023/04/29 02:33:34;;;;;;;7.65;6.85;;;;;;;;;;5019018;28;20213;-86
2023/04/29 02:36:01;;;;;;;7.15;6.45;;;;;;;;;;5019931;28;20242;-86
2023/04/29 02:38:29;;;;;;;7.10;6.40;;;;;;;;;;5019627;28;20286;-85
2023/04/29 02:40:57;;;;;;;8.32;7.53;;;;;;;;;;5019414;28;20239;-86
2023/04/29 02:43:25;;;;;;;7.88;7.07;;;;;;;;;;5019781;28;20675;-85
2023/04/29 02:45:54;;;;;;;7.97;7.15;;;;;;;;;;5019726;28;20658;-85
2023/04/29 02:48:21;;;;;;;10.00;9.00;;;;;;;;;;5019414;28;20245;-85
2023/04/29 02:50:48;;;;;;;9.10;7.22;;;;;;;;;;5019794;28;20282;-86
2023/04/29 02:53:16;;;;;;;8.00;7.20;;;;;;;;;;5017552;28;20653;-86
2023/04/29 02:55:43;;;;;;;8.43;7.38;;;;;;;;;;5018214;28;20593;-86
2023/04/29 02:58:11;;;;;;;7.57;6.78;;;;;;;;;;5017015;28;20218;-86
2023/04/29 03:00:40;;;;;;;8.77;7.85;;;;;;;;;;5017472;28;20274;-86
2023/04/29 03:03:09;;;;;;;7.10;6.50;;;;;;;;;;5018216;28;20656;-85
2023/04/29 03:05:37;;;;;;;7.15;6.45;;;;;;;;;;5018469;28;20314;-86
2023/04/29 03:08:04;;;;;;;7.65;6.68;;;;;;;;;;5018356;28;20289;-85
2023/04/29 03:10:32;;;;;;;8.48;7.55;;;;;;;;;;5018895;28;20239;-84
2023/04/29 03:12:59;;;;;;;8.77;7.13;;;;;;;;;;5017996;28;20656;-84
2023/04/29 03:15:27;;;;;;;7.20;6.50;;;;;;;;;;5018364;28;20331;-84
2023/04/29 03:17:54;;;;;;;6.25;5.65;;;;;;;;;;5017366;28;20203;-85
2023/04/29 03:20:24;;;;;;;7.93;7.10;;;;;;;;;;5016886;28;20207;-85
2023/04/29 03:22:51;;;;;;;7.00;6.20;;;;;;;;;;5017501;28;20223;-86
2023/04/29 03:25:19;;;;;;;10.77;8.70;;;;;;;;;;5017250;28;20675;-85
2023/04/29 03:27:47;;;;;;;5.95;5.35;;;;;;;;;;5017223;28;20207;-84
2023/04/29 03:30:14;;;;;;;7.57;6.88;;;;;;;;;;5017453;28;20203;-84
2023/04/29 03:32:41;;;;;;;7.47;6.72;;;;;;;;;;5016909;28;20203;-85
2023/04/29 03:35:10;;;;;;;6.53;5.65;;;;;;;;;;5016901;28;20249;-85
2023/04/29 03:37:39;;;;;;;6.93;5.95;;;;;;;;;;5016964;28;20207;-84
2023/04/29 03:40:09;;;;;;;6.55;5.95;;;;;;;;;;5017072;28;20285;-86
2023/04/29 03:42:36;;;;;;;7.50;6.80;;;;;;;;;;5016066;28;20295;-86
2023/04/29 03:45:05;;;;;;;7.43;6.00;;;;;;;;;;5017566;28;20673;-86
2023/04/29 03:47:32;;;;;;;6.13;5.43;;;;;;;;;;5016821;28;20206;-84
2023/04/29 03:50:00;;;;;;;6.45;5.85;;;;;;;;;;5017011;28;20286;-86
2023/04/29 03:52:28;;;;;;;6.38;5.03;;;;;;;;;;5017733;28;20234;-84
2023/04/29 03:54:56;;;;;;;6.35;5.75;;;;;;;;;;5016760;28;20226;-85
2023/04/29 03:57:24;;;;;;;7.15;6.45;;;;;;;;;;5017128;28;20637;-85
2023/04/29 03:59:51;;;;;;;6.95;6.25;;;;;;;;;;5017654;28;20281;-85
2023/04/29 04:02:19;;;;;;;6.07;5.47;;;;;;;;;;5016374;28;20314;-85
2023/04/29 04:04:46;;;;;;;6.63;5.85;;;;;;;;;;5016846;28;20700;-86
2023/04/29 04:07:14;;;;;;;6.30;5.68;;;;;;;;;;5018308;28;20659;-85
2023/04/29 04:09:41;;;;;;;6.80;6.00;;;;;;;;;;5018063;28;20231;-85
2023/04/29 04:12:10;;;;;;;6.30;5.55;;;;;;;;;;5018538;28;20282;-84
2023/04/29 04:14:38;;;;;;;5.70;4.97;;;;;;;;;;5017951;28;20644;-86
2023/04/29 04:17:05;;;;;;;5.78;5.28;;;;;;;;;;5018104;28;20270;-85
2023/04/29 04:19:34;;;;;;;6.32;5.00;;;;;;;;;;5017776;28;20261;-85
2023/04/29 04:22:02;;;;;;;4.68;4.22;;;;;;;;;;5018307;28;20265;-84
2023/04/29 04:24:30;;;;;;;4.85;4.35;;;;;;;;;;5017642;28;20258;-86
2023/04/29 04:26:58;;;;;;;5.60;5.00;;;;;;;;;;5018562;28;20253;-85
2023/04/29 04:29:26;;;;;;;4.55;4.07;;;;;;;;;;5017578;28;20282;-85
2023/04/29 04:31:54;;;;;;;5.75;4.72;;;;;;;;;;5017260;28;20227;-85
2023/04/29 04:34:22;;;;;;;5.18;4.68;;;;;;;;;;5017122;28;20229;-86
2023/04/29 04:36:49;;;;;;;4.03;3.53;;;;;;;;;;5018007;28;20230;-85
2023/04/29 04:39:17;;;;;;;5.15;4.68;;;;;;;;;;5016832;28;20202;-86
2023/04/29 04:41:44;;;;;;;4.38;3.97;;;;;;;;;;5016327;28;20251;-86
2023/04/29 04:44:12;;;;;;;4.05;3.67;;;;;;;;;;5017335;28;20571;-85
2023/04/29 04:46:41;;;;;;;4.78;4.30;;;;;;;;;;5017430;28;20652;-86
2023/04/29 04:49:08;;;;;;;5.22;4.72;;;;;;;;;;5016184;28;20203;-85
2023/04/29 04:51:36;;;;;;;4.40;4.00;;;;;;;;;;5016864;28;20267;-86
2023/04/29 04:54:03;;;;;;;4.75;4.35;;;;;;;;;;5015987;28;20207;-85
2023/04/29 04:56:31;;;;;;;5.13;4.13;;;;;;;;;;5016005;28;20306;-86
2023/04/29 04:58:58;;;;;;;4.88;4.38;;;;;;;;;;5015447;28;20246;-86
2023/04/29 05:01:26;;;;;;;6.38;4.88;;;;;;;;;;5018777;28;20203;-85
2023/04/29 05:03:56;;;;;;;4.68;4.20;;;;;;;;;;5020160;28;20223;-86
2023/04/29 05:06:23;;;;;;;4.68;3.92;;;;;;;;;;5020176;28;20209;-85
2023/04/29 05:08:51;;;;;;;3.20;3.00;;;;;;;;;;5019852;28;20281;-85
2023/04/29 05:11:19;;;;;;;4.50;3.83;;;;;;;;;;5020210;28;20195;-85
2023/04/29 05:13:46;;;;;;;4.88;4.15;;;;;;;;;;5021614;28;20231;-86
2023/04/29 05:16:16;;;;;;;6.63;4.75;;;;;;;;;;5020657;28;20227;-86
2023/04/29 05:18:44;;;;;;;4.78;4.28;;;;;;;;;;5019917;28;20254;-85
2023/04/29 05:21:13;;;;;;;4.95;4.45;;;;;;;;;;5021689;28;20234;-86
2023/04/29 05:23:42;;;;;;;5.10;4.38;;;;;;;;;;5021123;28;20654;-86
2023/04/29 05:26:09;;;;;;;5.90;4.97;;;;;;;;;;5020134;28;20314;-85
2023/04/29 05:28:37;;;;;;;6.68;5.35;;;;;;;;;;5019797;28;20202;-85
2023/04/29 05:31:05;;;;;;;5.68;5.05;;;;;;;;;;5020583;28;20207;-85
2023/04/29 05:33:32;;;;;;;7.85;6.28;;;;;;;;;;5017633;28;20199;-86
2023/04/29 05:36:00;;;;;;;7.32;6.57;;;;;;;;;;5019290;28;20290;-86
2023/04/29 05:38:28;;;;;;;8.65;6.22;;;;;;;;;;5018821;28;20727;-86
2023/04/29 05:40:56;;;;;;;6.75;6.00;;;;;;;;;;5017418;28;20306;-86
2023/04/29 05:43:24;;;;;;;8.73;6.70;;;;;;;;;;5015074;28;20314;-86
2023/04/29 05:45:51;;;;;;;11.25;8.25;;;;;;;;;;5015759;28;20786;-85
2023/04/29 05:48:19;;;;;;;9.45;7.25;;;;;;;;;;5014766;28;20386;-87
2023/04/29 05:50:47;;;;;;;9.55;8.07;;;;;;;;;;5027283;28;20234;-87
2023/04/29 05:53:15;;;;;;;8.10;7.28;;;;;;;;;;5026766;28;20225;-87
2023/04/29 05:55:45;;;;;;;9.18;7.38;;;;;;;;;;5035353;28;20272;-87
2023/04/29 05:58:13;;;;;;;9.43;7.63;;;;;;;;;;5034977;28;20241;-87
2023/04/29 06:00:42;;;;;;;8.13;6.93;;;;;;;;;;5034933;28;20225;-87
2023/04/29 06:03:10;;;;;;;7.07;6.13;;;;;;;;;;5034961;28;20226;-86
2023/04/29 06:05:38;;;;;;;8.32;6.78;;;;;;;;;;5034694;28;20305;-87
2023/04/29 06:08:06;;;;;;;9.75;7.65;;;;;;;;;;5036290;28;20204;-87
2023/04/29 06:10:35;;;;;;;8.18;7.28;;;;;;;;;;5034214;28;20560;-87
2023/04/29 06:13:04;;;;;;;7.90;6.43;;;;;;;;;;5034962;28;20204;-87
2023/04/29 06:15:32;;;;;;;10.15;8.00;;;;;;;;;;5034613;28;20313;-87
2023/04/29 06:17:59;;;;;;;10.45;8.05;;;;;;;;;;5018426;28;21118;-87
2023/04/29 06:20:27;;;;;;;10.63;8.15;;;;;;;;;;5015011;28;20234;-87
2023/04/29 06:22:54;;;;;;;8.65;7.00;;;;;;;;;;5014919;28;20255;-87
2023/04/29 06:25:22;;;;;;;8.00;6.65;;;;;;;;;;5014564;28;20250;-87
2023/04/29 06:27:50;;;;;;;6.72;6.03;;;;;;;;;;5014406;28;20245;-87
2023/04/29 06:30:19;;;;;;;6.97;6.07;;;;;;;;;;5014874;28;20289;-88
2023/04/29 06:32:46;;;;;;;9.23;7.40;;;;;;;;;;5013894;28;20234;-87
2023/04/29 06:35:14;;;;;;;8.05;7.15;;;;;;;;;;5014703;28;20566;-87
2023/04/29 06:37:41;;;;;;;7.25;6.15;;;;;;;;;;5014127;28;20207;-87
2023/04/29 06:40:10;;;;;;;9.05;6.75;;;;;;;;;;5015337;28;20290;-87
2023/04/29 06:42:38;;;;;;;7.97;6.18;;;;;;;;;;5014487;28;20290;-86
2023/04/29 06:45:07;;;;;;;5.25;4.80;;;;;;;;;;5014136;28;20314;-86
2023/04/29 06:47:36;;;;;;;4.95;4.55;;;;;;;;;;5013965;28;20289;-86
2023/04/29 06:50:04;;;;;;;4.60;4.20;;;;;;;;;;5014432;28;20209;-87
2023/04/29 06:52:32;;;;;;;5.80;4.93;;;;;;;;;;5014344;28;20213;-87
2023/04/29 06:54:59;;;;;;;6.55;5.05;;;;;;;;;;5014036;28;20227;-88
2023/04/29 06:57:27;;;;;;;4.32;3.92;;;;;;;;;;5016922;28;20289;-87
2023/04/29 06:59:54;;;;;;;5.65;4.80;;;;;;;;;;5016364;28;20673;-87
2023/04/29 07:02:23;;;;;;;5.05;4.47;;;;;;;;;;5014160;28;20207;-86
2023/04/29 07:04:52;;;;;;;5.13;4.18;;;;;;;;;;5014162;28;20231;-87
2023/04/29 07:07:20;;;;;;;5.18;4.28;;;;;;;;;;5014082;28;20213;-86
2023/04/29 07:09:50;;;;;;;5.00;3.80;;;;;;;;;;5013759;28;20294;-86
2023/04/29 07:12:18;;;;;;;2.95;2.75;;;;;;;;;;5013958;28;20659;-87
2023/04/29 07:14:45;;;;;;;4.65;3.78;;;;;;;;;;5013891;28;20746;-86
2023/04/29 07:17:13;;;;;;;3.55;3.03;;;;;;;;;;5014097;28;20204;-88
2023/04/29 07:19:40;;;;;;;3.90;3.60;;;;;;;;;;5013729;28;20278;-88
2023/04/29 07:22:09;;;;;;;4.45;4.00;;;;;;;;;;5013274;28;20234;-88
2023/04/29 07:24:36;;;;;;;4.07;3.78;;;;;;;;;;5013824;28;20258;-88
2023/04/29 07:27:04;;;;;;;2.88;2.67;;;;;;;;;;5013624;28;20637;-88
2023/04/29 07:29:31;;;;;;;4.88;3.20;;;;;;;;;;5013518;28;20245;-87
2023/04/29 07:31:59;;;;;;;3.97;3.60;;;;;;;;;;5013545;28;20207;-88
2023/04/29 07:34:26;;;;;;;4.07;3.58;;;;;;;;;;5013533;28;20231;-88
2023/04/29 07:36:55;;;;;;;4.90;4.40;;;;;;;;;;5013624;28;20290;-88
2023/04/29 07:39:24;;;;;;;5.68;3.47;;;;;;;;;;5013341;28;20203;-87
2023/04/29 07:41:51;;;;;;;3.47;3.17;;;;;;;;;;5013381;28;20649;-87
2023/04/29 07:44:19;;;;;;;3.72;3.42;;;;;;;;;;5013412;28;20230;-87
2023/04/29 07:46:46;;;;;;;4.60;4.10;;;;;;;;;;5013452;28;20569;-88
2023/04/29 07:49:14;;;;;;;3.97;3.60;;;;;;;;;;5013343;28;20736;-88
2023/04/29 07:51:42;;;;;;;4.13;3.83;;;;;;;;;;5013493;28;20297;-87
2023/04/29 07:54:10;;;;;;;4.85;4.38;;;;;;;;;;5013537;28;20207;-89
2023/04/29 07:56:39;;;;;;;4.50;4.10;;;;;;;;;;5013561;28;20203;-88
2023/04/29 07:59:06;;;;;;;4.57;4.18;;;;;;;;;;5013358;28;20242;-87
2023/04/29 08:01:34;;;;;;;4.97;4.20;;;;;;;;;;5013556;28;20285;-88
2023/04/29 08:04:01;;;;;;;4.70;4.30;;;;;;;;;;5013194;28;20703;-87
2023/04/29 08:06:29;;;;;;;6.07;5.43;;;;;;;;;;5013159;28;20266;-87
2023/04/29 08:08:57;;;;;;;6.32;5.70;;;;;;;;;;5012635;28;20199;-88
2023/04/29 08:11:25;;;;;;;5.38;4.88;;;;;;;;;;5013207;28;20669;-87
2023/04/29 08:13:56;;;;;;;5.57;5.13;;;;;;;;;;5013936;28;20254;-87
2023/04/29 08:16:24;;;;;;;5.90;5.32;;;;;;;;;;5013003;28;20213;-87
2023/04/29 08:18:52;;;;;;;5.75;5.25;;;;;;;;;;5013122;28;20234;-87
2023/04/29 08:21:20;;;;;;;5.22;4.72;;;;;;;;;;5013424;28;20574;-86
2023/04/29 08:23:47;;;;;;;5.70;5.20;;;;;;;;;;5013338;28;20195;-88
2023/04/29 08:26:15;;;;;;;6.65;5.95;;;;;;;;;;5012641;28;20783;-85
2023/04/29 08:28:42;;;;;;;8.38;6.13;;;;;;;;;;5012675;28;20311;-88
2023/04/29 08:31:17;;;;;;;5.85;5.15;;;;;;;;;;5013557;28;20635;-86
2023/04/29 08:33:44;;;;;;;5.90;5.30;;;;;;;;;;5014291;28;20206;-86
2023/04/29 08:36:12;;;;;;;7.22;6.53;;;;;;;;;;5017051;28;20655;-86
2023/04/29 08:38:40;;;;;;;5.63;5.13;;;;;;;;;;5016912;28;20202;-85
2023/04/29 08:41:08;;;;;;;5.72;5.22;;;;;;;;;;5017430;28;20230;-86
2023/04/29 08:43:39;;;;;;;6.65;6.05;;;;;;;;;;5017095;28;20217;-88
2023/04/29 08:46:07;;;;;;;9.18;6.70;;;;;;;;;;5016311;28;20229;-87
2023/04/29 08:48:39;;;;;;;6.93;5.38;;;;;;;;;;4998285;28;20238;-88
2023/04/29 08:51:07;;;;;;;6.05;5.45;;;;;;;;;;4998371;28;20203;-88
2023/04/29 08:53:34;;;;;;;4.28;3.90;;;;;;;;;;4997956;28;20200;-88
2023/04/29 08:56:09;;;;;;;5.78;5.18;;;;;;;;;;4997850;28;20220;-88
2023/04/29 08:58:40;;;;;;;6.20;5.50;;;;;;;;;;4997977;28;20215;-89
2023/04/29 09:01:09;;;;;;;6.00;5.45;;;;;;;;;;4998335;28;20208;-88
2023/04/29 09:03:47;;;;;;;5.65;5.07;;;;;;;;;;4998043;28;20235;-88
2023/04/29 09:06:15;;;;;;;7.10;6.40;;;;;;;;;;4998026;28;20314;-89
2023/04/29 09:08:43;;;;;;;8.65;7.22;;;;;;;;;;4997852;28;20246;-88
2023/04/29 09:11:11;;;;;;;14.32;8.00;;;;;;;;;;4997825;28;20200;-89
2023/04/29 09:13:39;;;;;;;10.25;8.68;;;;;;;;;;4997506;28;20240;-88
2023/04/29 09:16:14;;;;;;;8.80;7.90;;;;;;;;;;4998338;28;20653;-88
2023/04/29 09:18:45;;;;;;;8.13;7.13;;;;;;;;;;5017466;28;20592;-89
2023/04/29 09:21:21;;;;;;;8.23;6.78;;;;;;;;;;5016596;28;20278;-88
2023/04/29 09:23:51;;;;;;;9.75;8.40;;;;;;;;;;5016861;28;20214;-88
2023/04/29 09:26:18;;;;;;;10.85;8.65;;;;;;;;;;5017010;28;20315;-89
2023/04/29 09:28:48;;;;;;;7.65;6.85;;;;;;;;;;5017139;28;20195;-87
2023/04/29 09:31:16;;;;;;;10.10;8.65;;;;;;;;;;5016501;28;20207;-88
2023/04/29 09:33:56;;;;;;;7.60;6.50;;;;;;;;;;5016154;28;20241;-88
2023/04/29 09:36:43;;;;;;;7.07;6.30;;;;;;;;;;5016834;28;20191;-88
2023/04/29 09:39:13;;;;;;;9.13;7.93;;;;;;;;;;5016436;28;20233;-88
2023/04/29 09:41:43;;;;;;;9.98;8.90;;;;;;;;;;5016192;28;20195;-88
2023/04/29 09:44:11;;;;;;;12.20;10.55;;;;;;;;;;5015987;28;20209;-88
2023/04/29 09:46:39;;;;;;;10.40;9.35;;;;;;;;;;5015317;28;20313;-88
2023/04/29 09:49:24;;;;;;;12.57;10.95;;;;;;;;;;5016730;28;20265;-88
2023/04/29 09:51:58;;;;;;;12.10;10.68;;;;;;;;;;5016458;28;20231;-89
2023/04/29 09:54:28;;;;;;;12.93;11.63;;;;;;;;;;5016527;28;20326;-88
2023/04/29 09:56:58;;;;;;;14.32;11.63;;;;;;;;;;5016295;28;20196;-88
2023/04/29 09:59:26;;;;;;;11.77;10.57;;;;;;;;;;5016065;28;20247;-88
2023/04/29 10:01:55;;;;;;;12.43;11.13;;;;;;;;;;5016088;28;20245;-89
2023/04/29 10:04:26;;;;;;;12.02;10.82;;;;;;;;;;5015959;28;20306;-88
2023/04/29 10:06:56;;;;;;;10.95;9.90;;;;;;;;;;5016091;28;20622;-88
2023/04/29 10:09:24;;;;;;;13.18;9.88;;;;;;;;;;5015964;28;20625;-88
2023/04/29 10:11:53;;;;;;;11.50;10.32;;;;;;;;;;5016009;28;20290;-88
2023/04/29 10:14:23;;;;;;;13.50;9.95;;;;;;;;;;5016128;28;20219;-88
2023/04/29 10:16:54;;;;;;;12.20;10.73;;;;;;;;;;5015804;28;20227;-88
2023/04/29 10:19:34;;;;;;;10.63;9.45;;;;;;;;;;5015744;28;20199;-88
2023/04/29 10:22:05;;;;;;;10.98;9.88;;;;;;;;;;5015770;28;20195;-88
2023/04/29 10:24:34;;;;;;;11.15;9.95;;;;;;;;;;5015926;28;20283;-87
2023/04/29 10:27:01;;;;;;;9.45;8.05;;;;;;;;;;5015384;28;20678;-86
2023/04/29 10:29:31;;;;;;;15.80;14.23;;;;;;;;;;5016316;28;20254;-86
2023/04/29 10:31:59;;;;;;;15.95;14.07;;;;;;;;;;5015316;28;20294;-86
2023/04/29 10:34:28;;;;;;;12.55;11.25;;;;;;;;;;5015410;28;20222;-87
2023/04/29 10:36:56;;;;;;;11.20;10.10;;;;;;;;;;5015155;28;20266;-88
2023/04/29 10:39:31;;;;;;;10.60;9.52;;;;;;;;;;5014962;28;20201;-88
2023/04/29 10:41:59;;;;;;;10.88;9.27;;;;;;;;;;5015097;28;20187;-87
2023/04/29 10:44:26;;;;;;;11.32;10.20;;;;;;;;;;5015550;28;20623;-87
2023/04/29 10:47:21;;;;;;;11.40;9.60;;;;;;;;;;5014865;28;20254;-87
2023/04/29 10:50:05;;;;;;;8.60;7.75;;;;;;;;;;5014996;28;20242;-86
2023/04/29 10:52:52;;;;;;;11.63;9.50;;;;;;;;;;5014748;28;20298;-87
2023/04/29 10:55:19;;;;;;;11.27;9.98;;;;;;;;;;5014596;28;20623;-87
2023/04/29 10:57:47;;;;;;;11.63;10.32;;;;;;;;;;5013513;28;20289;-87
2023/04/29 11:00:23;;;;;;;13.43;9.52;;;;;;;;;;5017214;28;20290;-87
2023/04/29 11:02:50;;;;;;;8.88;8.02;;;;;;;;;;5014961;28;20205;-87
2023/04/29 11:05:31;;;;;;;10.57;9.50;;;;;;;;;;5014136;28;20277;-88
2023/04/29 11:08:12;;;;;;;10.32;9.32;;;;;;;;;;5014351;28;20199;-87
2023/04/29 11:10:42;;;;;;;8.88;7.97;;;;;;;;;;5014029;28;20199;-87
2023/04/29 11:13:22;;;;;;;10.77;9.57;;;;;;;;;;5013939;28;20242;-88
2023/04/29 11:15:52;;;;;;;10.25;8.32;;;;;;;;;;5014326;28;20645;-87
2023/04/29 11:18:19;;;;;;;11.18;10.15;;;;;;;;;;4995733;28;20306;-87
2023/04/29 11:21:16;;;;;;;11.55;10.30;;;;;;;;;;4994475;28;20231;-88
2023/04/29 11:23:44;;;;;;;9.48;8.55;;;;;;;;;;4994209;28;20646;-87
2023/04/29 11:26:11;;;;;;;12.18;10.30;;;;;;;;;;4994350;28;20227;-88
2023/04/29 11:28:41;;;;;;;11.88;10.60;;;;;;;;;;4994478;28;20231;-88
2023/04/29 11:31:09;;;;;;;11.32;9.65;;;;;;;;;;4994204;28;20211;-87
2023/04/29 11:33:36;;;;;;;9.63;8.73;;;;;;;;;;4993885;28;20234;-87
2023/04/29 11:36:05;;;;;;;8.18;7.32;;;;;;;;;;4993848;28;20247;-88
2023/04/29 11:38:35;;;;;;;9.07;8.18;;;;;;;;;;4994072;28;20235;-87
2023/04/29 11:41:02;;;;;;;9.90;8.90;;;;;;;;;;4994534;28;20196;-88
2023/04/29 11:43:30;;;;;;;7.78;7.07;;;;;;;;;;4994392;28;20266;-88
2023/04/29 11:45:57;;;;;;;9.00;7.93;;;;;;;;;;4994039;28;20318;-87
2023/04/29 11:48:28;;;;;;;9.48;8.57;;;;;;;;;;4994201;28;20231;-87
2023/04/29 11:50:59;;;;;;;10.52;9.43;;;;;;;;;;4998736;28;20195;-88
2023/04/29 11:53:27;;;;;;;10.48;9.38;;;;;;;;;;5029663;28;20628;-87
2023/04/29 11:55:57;;;;;;;11.30;10.23;;;;;;;;;;5013317;28;20696;-87
2023/04/29 11:58:25;;;;;;;10.18;9.18;;;;;;;;;;5012887;28;20238;-87
2023/04/29 12:00:52;;;;;;;10.23;9.23;;;;;;;;;;5013629;28;20286;-87
2023/04/29 12:03:21;;;;;;;9.77;8.85;;;;;;;;;;5013321;28;20237;-88
2023/04/29 12:05:51;;;;;;;10.27;9.38;;;;;;;;;;5013269;28;20233;-88
2023/04/29 12:08:20;;;;;;;9.85;8.93;;;;;;;;;;5012798;28;20200;-88
2023/04/29 12:10:48;;;;;;;9.15;8.25;;;;;;;;;;5013069;28;20278;-87
2023/04/29 12:13:17;;;;;;;10.57;9.00;;;;;;;;;;5013512;28;20199;-88
2023/04/29 12:15:45;;;;;;;8.63;7.82;;;;;;;;;;5013375;28;20223;-87
2023/04/29 12:18:13;;;;;;;13.07;9.52;;;;;;;;;;4995618;28;20212;-88
2023/04/29 12:20:41;;;;;;;11.23;10.13;;;;;;;;;;4993540;28;20657;-89
2023/04/29 12:23:13;;;;;;;10.18;9.15;;;;;;;;;;4993647;28;20649;-87
2023/04/29 12:25:41;;;;;;;11.90;9.43;;;;;;;;;;4993275;28;20283;-88
2023/04/29 12:28:13;;;;;;;9.38;8.50;;;;;;;;;;4993519;28;20219;-88
2023/04/29 12:30:43;;;;;;;9.82;8.82;;;;;;;;;;4993609;28;20295;-88
2023/04/29 12:33:11;;;;;;;9.68;8.77;;;;;;;;;;4994403;28;20283;-87
2023/04/29 12:35:38;;;;;;;8.80;7.93;;;;;;;;;;4993221;28;20246;-88
2023/04/29 12:38:06;;;;;;;9.95;8.52;;;;;;;;;;4992922;28;21301;-88
2023/04/29 12:40:33;;;;;;;10.48;8.90;;;;;;;;;;4993443;28;20563;-88
2023/04/29 12:43:08;;;;;;;9.23;8.27;;;;;;;;;;4993133;28;20200;-87
2023/04/29 12:45:36;;;;;;;10.25;8.48;;;;;;;;;;4994120;28;20243;-87
2023/04/29 12:48:06;;;;;;;8.65;7.85;;;;;;;;;;4993855;28;20302;-89
2023/04/29 12:50:36;;;;;;;8.40;7.25;;;;;;;;;;4994028;28;20602;-88
2023/04/29 12:53:05;;;;;;;8.45;7.43;;;;;;;;;;4994460;28;20222;-89
2023/04/29 12:55:34;;;;;;;7.95;7.15;;;;;;;;;;4993614;28;20688;-88
2023/04/29 12:58:02;;;;;;;9.25;8.32;;;;;;;;;;4993201;28;20294;-89
2023/04/29 13:00:29;;;;;;;8.77;7.95;;;;;;;;;;4993304;28;20848;-88
2023/04/29 13:02:57;;;;;;;9.52;8.73;;;;;;;;;;4993568;28;20203;-89
2023/04/29 13:05:26;;;;;;;10.07;7.70;;;;;;;;;;4993389;28;20239;-89
2023/04/29 13:07:53;;;;;;;9.90;8.68;;;;;;;;;;4993464;28;20318;-88
2023/04/29 13:10:21;;;;;;;11.18;10.05;;;;;;;;;;4994042;28;20204;-88
2023/04/29 13:12:48;;;;;;;9.32;8.43;;;;;;;;;;4993163;28;20231;-87
2023/04/29 13:15:16;;;;;;;8.88;7.88;;;;;;;;;;4993168;28;20250;-88
2023/04/29 13:17:44;;;;;;;6.38;5.88;;;;;;;;;;4993043;28;20242;-89
2023/04/29 13:20:14;;;;;;;8.60;7.80;;;;;;;;;;4993326;28;20203;-88
2023/04/29 13:22:43;;;;;;;8.70;7.97;;;;;;;;;;4996834;28;20279;-89
2023/04/29 13:25:11;;;;;;;8.13;7.43;;;;;;;;;;4996740;28;20231;-89
2023/04/29 13:27:39;;;;;;;8.13;7.25;;;;;;;;;;4996726;28;20637;-88
2023/04/29 13:30:08;;;;;;;7.95;7.03;;;;;;;;;;4996758;28;20247;-88
2023/04/29 13:32:35;;;;;;;7.68;7.00;;;;;;;;;;4996739;28;20736;-89
2023/04/29 13:35:03;;;;;;;8.00;7.28;;;;;;;;;;4996709;28;20227;-89
2023/04/29 13:37:31;;;;;;;6.95;6.35;;;;;;;;;;4996177;28;20583;-89
2023/04/29 13:40:00;;;;;;;9.07;8.25;;;;;;;;;;4996416;28;20294;-90
2023/04/29 13:42:27;;;;;;;8.43;7.63;;;;;;;;;;4996458;28;20291;-89
2023/04/29 13:44:56;;;;;;;7.25;6.55;;;;;;;;;;4996320;28;20314;-89
2023/04/29 13:47:24;;;;;;;6.93;6.30;;;;;;;;;;4996529;28;20220;-88
2023/04/29 13:49:51;;;;;;;7.05;6.35;;;;;;;;;;4996321;28;20200;-88
2023/04/29 13:52:19;;;;;;;7.43;6.82;;;;;;;;;;4996134;28;20254;-87
2023/04/29 13:54:46;;;;;;;6.65;6.03;;;;;;;;;;4996357;28;20359;-87
2023/04/29 13:57:15;;;;;;;6.53;5.93;;;;;;;;;;4996657;28;20575;-88
2023/04/29 13:59:43;;;;;;;6.30;5.75;;;;;;;;;;4996148;28;20639;-88
2023/04/29 14:02:12;;;;;;;7.22;5.75;;;;;;;;;;4995975;28;20199;-88
2023/04/29 14:04:40;;;;;;;7.07;6.47;;;;;;;;;;4996356;28;20751;-88
2023/04/29 14:07:07;;;;;;;6.47;5.90;;;;;;;;;;4996098;28;20207;-88
2023/04/29 14:09:35;;;;;;;6.38;5.82;;;;;;;;;;4995950;28;20223;-88
2023/04/29 14:12:02;;;;;;;5.63;5.18;;;;;;;;;;4996019;28;20291;-88
2023/04/29 14:14:31;;;;;;;6.38;5.80;;;;;;;;;;4996215;28;20318;-89
2023/04/29 14:17:00;;;;;;;5.85;5.30;;;;;;;;;;5003549;28;20210;-88
2023/04/29 14:19:27;;;;;;;6.03;5.53;;;;;;;;;;5015714;28;20654;-87
2023/04/29 14:21:55;;;;;;;6.60;6.10;;;;;;;;;;5015890;28;20294;-88
2023/04/29 14:24:22;;;;;;;5.32;4.80;;;;;;;;;;5015522;28;20250;-88
2023/04/29 14:26:51;;;;;;;7.50;6.80;;;;;;;;;;5015533;28;20237;-88
2023/04/29 14:29:19;;;;;;;6.00;5.53;;;;;;;;;;5014965;28;20289;-88
2023/04/29 14:31:48;;;;;;;6.05;5.45;;;;;;;;;;5015179;28;20246;-88
2023/04/29 14:34:15;;;;;;;6.38;5.80;;;;;;;;;;5015042;28;20862;-89
2023/04/29 14:36:43;;;;;;;8.18;7.38;;;;;;;;;;5015701;28;20234;-88
2023/04/29 14:39:10;;;;;;;6.20;5.68;;;;;;;;;;5021215;28;20238;-88
2023/04/29 14:41:38;;;;;;;6.63;6.03;;;;;;;;;;5016452;28;20226;-88
2023/04/29 14:44:05;;;;;;;7.47;6.88;;;;;;;;;;5015134;28;20203;-89
2023/04/29 14:46:33;;;;;;;6.97;6.35;;;;;;;;;;5015113;28;20203;-87
2023/04/29 14:49:03;;;;;;;8.45;7.65;;;;;;;;;;5014710;28;20326;-88
2023/04/29 14:51:30;;;;;;;8.50;7.70;;;;;;;;;;5015455;28;20241;-88